Time;durP1;ratioP1;P1;durP2;ratioP2;P2;SDS_P1;SDS_P2;PMS_P1;PMS_P2;Temp;Humidity;BMP_temperature;BMP_pressure;BME280_temperature;BME280_humidity;BME280_pressure;Samples;Min_cycle;Max_cycle;Signal;HPM_P1;HPM_P2
2023/03/24 00:01:20;;;;;;;8.88;5.28;;;11.90;99.90;;;;;;7602666;19;20013;-72
2023/03/24 00:03:52;;;;;;;8.93;5.07;;;11.90;99.90;;;;;;7600791;19;20464;-73
2023/03/24 00:06:25;;;;;;;7.15;5.45;;;12.00;99.90;;;;;;7596335;19;20043;-73
2023/03/24 00:08:59;;;;;;;9.07;5.18;;;12.00;99.90;;;;;;7594429;19;20026;-73
2023/03/24 00:11:35;;;;;;;9.13;5.45;;;12.10;99.90;;;;;;7586909;19;20101;-73
2023/03/24 00:14:10;;;;;;;10.75;5.65;;;12.10;99.90;;;;;;7584406;19;20014;-73
2023/03/24 00:16:44;;;;;;;10.18;5.50;;;12.00;99.90;;;;;;7593434;19;20357;-73
2023/03/24 00:19:17;;;;;;;8.60;5.03;;;12.10;99.90;;;;;;7606424;19;20498;-74
2023/03/24 00:21:49;;;;;;;9.37;5.20;;;12.00;99.90;;;;;;7594174;19;20039;-73
2023/03/24 00:24:21;;;;;;;9.55;4.82;;;12.00;99.90;;;;;;7602713;19;20562;-73
2023/03/24 00:26:56;;;;;;;7.18;4.97;;;11.90;99.90;;;;;;7585307;19;20022;-74
2023/03/24 00:29:29;;;;;;;7.82;5.47;;;11.80;99.90;;;;;;7595975;19;20034;-73
2023/03/24 00:32:01;;;;;;;8.57;4.93;;;11.80;99.90;;;;;;7598628;19;20019;-75
2023/03/24 00:34:37;;;;;;;9.63;5.28;;;11.70;99.90;;;;;;7599426;19;20571;-73
2023/03/24 00:37:09;;;;;;;7.32;4.97;;;11.80;99.90;;;;;;7595179;19;20046;-73
2023/03/24 00:39:42;;;;;;;9.23;5.28;;;11.70;99.90;;;;;;7596996;19;20011;-72
2023/03/24 00:42:15;;;;;;;9.00;4.95;;;11.60;99.90;;;;;;7595034;19;20014;-73
2023/03/24 00:44:47;;;;;;;8.38;4.78;;;11.70;99.90;;;;;;7592287;19;20015;-72
2023/03/24 00:47:24;;;;;;;8.20;5.45;;;11.60;99.90;;;;;;7599008;19;20022;-73
2023/03/24 00:50:00;;;;;;;8.57;5.10;;;11.60;99.90;;;;;;7591069;19;20478;-72
2023/03/24 00:52:33;;;;;;;12.02;5.38;;;11.60;99.90;;;;;;7585844;19;20021;-74
2023/03/24 00:55:05;;;;;;;9.85;5.40;;;11.60;99.90;;;;;;7596430;19;21249;-73
2023/03/24 00:57:39;;;;;;;8.13;5.30;;;11.70;99.90;;;;;;7592243;19;20034;-73
2023/03/24 01:00:17;;;;;;;;;;;11.70;99.90;;;;;;7596768;19;20426;-73
2023/03/24 01:02:52;;;;;;;9.23;5.75;;;11.70;99.90;;;;;;7599420;19;19927;-73
2023/03/24 01:05:29;;;;;;;8.35;5.25;;;11.70;99.90;;;;;;7585146;19;20018;-72
2023/03/24 01:08:02;;;;;;;7.32;5.35;;;11.70;99.90;;;;;;7594767;19;20022;-74
2023/03/24 01:10:49;;;;;;;10.88;5.22;;;11.70;99.90;;;;;;7595410;19;20018;-75
2023/03/24 01:13:25;;;;;;;8.98;6.10;;;11.70;99.90;;;;;;7597134;19;20021;-72
2023/03/24 01:15:57;;;;;;;8.52;5.38;;;11.70;99.90;;;;;;7588772;19;20018;-72
2023/03/24 01:18:29;;;;;;;8.65;5.72;;;11.60;99.90;;;;;;7585059;19;20022;-72
2023/03/24 01:21:02;;;;;;;9.75;5.78;;;11.60;99.90;;;;;;7593219;19;20348;-73
2023/03/24 01:23:35;;;;;;;10.97;5.77;;;11.50;99.90;;;;;;7598739;19;20061;-72
2023/03/24 01:26:09;;;;;;;10.48;5.63;;;11.40;99.90;;;;;;7591378;19;20014;-73
2023/03/24 01:28:42;;;;;;;12.65;6.32;;;11.40;99.90;;;;;;7571323;19;20018;-73
2023/03/24 01:31:15;;;;;;;9.35;5.88;;;11.30;99.90;;;;;;7582154;19;20021;-73
2023/03/24 01:33:47;;;;;;;8.43;5.45;;;11.30;99.90;;;;;;7594453;19;20018;-76
2023/03/24 01:36:19;;;;;;;14.15;5.70;;;11.30;99.90;;;;;;7605198;19;20022;-74
2023/03/24 01:38:52;;;;;;;10.93;6.28;;;11.40;99.90;;;;;;7592513;19;20070;-73
2023/03/24 01:41:29;;;;;;;9.65;6.05;;;11.40;99.90;;;;;;7599487;19;20134;-72
2023/03/24 01:44:21;;;;;;;9.48;5.72;;;11.30;99.90;;;;;;7584988;19;20086;-74
2023/03/24 01:46:56;;;;;;;7.75;5.70;;;11.30;99.90;;;;;;7582938;19;20118;-73
2023/03/24 01:49:45;;;;;;;14.55;5.22;;;11.30;99.90;;;;;;7595841;19;20057;-74
2023/03/24 01:52:23;;;;;;;9.27;5.60;;;11.30;99.90;;;;;;7587734;19;20053;-72
2023/03/24 01:55:06;;;;;;;8.77;4.95;;;11.20;99.90;;;;;;7581789;19;20022;-73
2023/03/24 01:57:42;;;;;;;12.82;5.57;;;11.10;99.90;;;;;;7580615;19;20014;-72
2023/03/24 02:00:17;;;;;;;11.05;5.28;;;11.10;99.90;;;;;;7588410;19;20018;-73
2023/03/24 02:03:19;;;;;;;7.88;5.38;;;11.00;99.90;;;;;;7588588;19;20138;-73
2023/03/24 02:06:02;;;;;;;10.65;5.22;;;11.00;99.90;;;;;;7592976;19;20022;-74
2023/03/24 02:08:48;;;;;;;8.13;4.75;;;11.10;99.90;;;;;;7585140;19;20022;-72
2023/03/24 02:11:25;;;;;;;9.55;5.30;;;11.10;99.90;;;;;;7592295;19;20105;-72
2023/03/24 02:14:04;;;;;;;6.53;4.35;;;11.10;99.90;;;;;;7574094;19;20010;-74
2023/03/24 02:16:37;;;;;;;;;;;11.10;99.90;;;;;;7586061;19;20018;-73
2023/03/24 02:19:36;;;;;;;8.70;5.47;;;11.10;99.90;;;;;;7585056;19;19935;-72
2023/03/24 02:22:45;;;;;;;7.57;5.18;;;11.10;99.90;;;;;;7586480;19;20571;-73
2023/03/24 02:25:35;;;;;;;11.60;5.70;;;11.10;99.90;;;;;;7583115;19;20181;-74
2023/03/24 02:28:32;;;;;;;10.77;5.72;;;10.90;99.90;;;;;;7583792;19;20021;-74
2023/03/24 02:31:11;;;;;;;7.65;5.10;;;10.90;99.90;;;;;;7589677;19;20105;-73
2023/03/24 02:34:03;;;;;;;10.23;5.68;;;11.00;99.90;;;;;;7611149;19;20045;-74
2023/03/24 02:36:35;;;;;;;9.20;5.70;;;11.10;99.90;;;;;;7596738;19;20077;-73
2023/03/24 02:39:30;;;;;;;9.95;5.53;;;11.10;99.90;;;;;;7585413;19;20024;-74
2023/03/24 02:42:15;;;;;;;8.20;5.35;;;11.10;99.90;;;;;;7598702;19;20021;-73
2023/03/24 02:44:55;;;;;;;9.15;5.45;;;11.10;99.90;;;;;;7600237;19;20032;-73
2023/03/24 02:48:03;;;;;;;13.70;5.43;;;11.10;99.90;;;;;;7598789;19;20034;-73
2023/03/24 02:50:49;;;;;;;8.93;4.97;;;11.20;99.90;;;;;;7595660;19;20024;-73
2023/03/24 02:53:51;;;;;;;7.85;5.03;;;11.30;99.90;;;;;;7602347;19;20690;-73
2023/03/24 02:56:32;;;;;;;9.35;5.03;;;11.20;99.90;;;;;;7598841;19;21334;-73
2023/03/24 02:59:55;;;;;;;6.53;5.40;;;11.20;99.90;;;;;;7599495;19;20600;-74
2023/03/24 03:02:58;;;;;;;12.30;5.22;;;11.20;99.90;;;;;;7600042;19;20026;-72
2023/03/24 03:05:47;;;;;;;8.02;5.00;;;11.20;99.90;;;;;;7602246;19;20057;-74
2023/03/24 03:08:21;;;;;;;11.85;5.38;;;11.10;99.90;;;;;;7596452;19;20014;-73
2023/03/24 03:10:56;;;;;;;8.68;5.20;;;11.10;99.90;;;;;;7600393;19;20541;-74
2023/03/24 03:13:39;;;;;;;10.52;5.32;;;11.10;99.90;;;;;;7594306;19;20023;-74
2023/03/24 03:16:37;;;;;;;10.07;5.65;;;11.10;99.90;;;;;;7596131;19;20361;-73
2023/03/24 03:19:21;;;;;;;7.78;5.00;;;11.00;99.90;;;;;;7603857;19;20395;-74
2023/03/24 03:21:55;;;;;;;8.15;5.10;;;11.00;99.90;;;;;;7603252;19;21499;-74
2023/03/24 03:24:34;;;;;;;10.73;5.47;;;11.00;99.90;;;;;;7609464;19;20018;-73
2023/03/24 03:27:17;;;;;;;9.90;5.32;;;11.10;99.90;;;;;;7596590;19;21487;-74
2023/03/24 03:29:54;;;;;;;8.20;4.85;;;11.10;99.90;;;;;;7599887;19;20049;-74
2023/03/24 03:32:30;;;;;;;7.93;5.25;;;11.00;99.90;;;;;;7603882;19;20611;-74
2023/03/24 03:35:13;;;;;;;8.07;5.15;;;11.00;99.90;;;;;;7594622;19;20019;-74
2023/03/24 03:37:59;;;;;;;7.47;4.82;;;11.00;99.90;;;;;;7597617;19;20015;-74
2023/03/24 03:40:48;;;;;;;7.43;4.90;;;11.10;99.90;;;;;;7588834;19;20109;-74
2023/03/24 03:43:25;;;;;;;8.32;5.03;;;11.10;99.90;;;;;;7579053;19;20014;-74
2023/03/24 03:45:59;;;;;;;10.95;4.90;;;11.00;99.90;;;;;;7528493;19;20029;-74
2023/03/24 03:48:39;;;;;;;9.82;5.50;;;11.10;99.90;;;;;;7567233;19;20039;-74
2023/03/24 03:51:13;;;;;;;;;;;11.20;99.90;;;;;;7583356;19;20041;-73
2023/03/24 03:54:10;;;;;;;8.45;5.40;;;11.20;99.90;;;;;;7583009;19;19922;-73
2023/03/24 03:56:43;;;;;;;8.25;4.90;;;11.20;99.90;;;;;;7582510;19;20037;-74
2023/03/24 03:59:34;;;;;;;8.32;5.88;;;11.20;99.90;;;;;;7583636;19;20113;-73
2023/03/24 04:02:27;;;;;;;10.45;5.70;;;11.10;99.90;;;;;;7583725;19;20018;-74
2023/03/24 04:05:09;;;;;;;8.25;5.40;;;10.90;99.90;;;;;;7577085;19;20018;-74
2023/03/24 04:07:56;;;;;;;11.27;5.57;;;10.90;99.90;;;;;;7576798;19;20093;-74
2023/03/24 04:11:13;;;;;;;9.35;5.70;;;10.90;99.90;;;;;;7576488;19;20043;-73
2023/03/24 04:14:17;;;;;;;10.80;5.75;;;11.00;99.90;;;;;;7571704;19;20006;-74
2023/03/24 04:17:39;;;;;;;7.20;5.30;;;10.80;99.90;;;;;;7586624;19;20122;-73
2023/03/24 04:20:23;;;;;;;10.10;6.57;;;10.90;99.90;;;;;;7571453;19;20033;-73
2023/03/24 04:23:25;;;;;;;10.98;5.72;;;10.90;99.90;;;;;;7593664;19;20829;-73
2023/03/24 04:26:25;;;;;;;8.35;5.38;;;10.80;99.90;;;;;;7572542;19;20014;-73
2023/03/24 04:29:19;;;;;;;8.55;5.72;;;11.00;99.90;;;;;;7569490;19;20010;-73
2023/03/24 04:32:18;;;;;;;10.98;5.85;;;11.00;99.90;;;;;;7597533;19;20018;-72
2023/03/24 04:35:00;;;;;;;9.02;5.53;;;11.10;99.90;;;;;;7587466;19;20014;-74
2023/03/24 04:38:22;;;;;;;9.82;5.13;;;11.10;99.90;;;;;;7587281;19;20054;-73
2023/03/24 04:41:04;;;;;;;12.52;5.00;;;11.10;99.90;;;;;;7593524;19;20018;-73
2023/03/24 04:43:37;;;;;;;9.52;5.13;;;11.10;99.90;;;;;;7599396;19;20015;-74
2023/03/24 04:46:16;;;;;;;11.48;5.55;;;11.20;99.90;;;;;;7583162;19;20011;-73
2023/03/24 04:49:12;;;;;;;13.23;5.57;;;11.20;99.90;;;;;;7596474;19;20022;-73
2023/03/24 04:51:46;;;;;;;7.38;5.20;;;11.20;99.90;;;;;;7591349;19;20036;-73
2023/03/24 04:54:24;;;;;;;9.57;5.13;;;11.20;99.90;;;;;;7593397;19;20018;-73
2023/03/24 04:57:05;;;;;;;8.45;5.80;;;11.10;99.90;;;;;;7594195;19;20025;-73
2023/03/24 04:59:43;;;;;;;11.13;5.70;;;11.10;99.90;;;;;;7600308;19;21195;-73
2023/03/24 05:02:16;;;;;;;8.55;5.10;;;11.10;99.90;;;;;;7594503;19;20396;-74
2023/03/24 05:05:00;;;;;;;9.52;5.75;;;11.10;99.90;;;;;;7597608;19;20598;-75
2023/03/24 05:07:41;;;;;;;9.95;6.50;;;11.20;99.90;;;;;;7604396;19;20018;-74
2023/03/24 05:10:16;;;;;;;10.07;6.47;;;11.20;99.90;;;;;;7601084;19;20798;-73
2023/03/24 05:12:55;;;;;;;10.13;6.25;;;11.30;99.90;;;;;;7596714;19;20595;-73
2023/03/24 05:15:30;;;;;;;14.15;6.80;;;11.30;99.90;;;;;;7597300;19;20081;-74
2023/03/24 05:18:21;;;;;;;9.80;5.60;;;11.20;99.90;;;;;;7591879;19;20124;-73
2023/03/24 05:20:54;;;;;;;11.02;6.50;;;11.20;99.90;;;;;;7603640;19;20014;-73
2023/03/24 05:23:26;;;;;;;10.52;6.97;;;11.30;99.90;;;;;;7561460;19;20026;-73
2023/03/24 05:26:00;;;;;;;10.15;7.10;;;11.40;99.90;;;;;;7562290;19;21453;-74
2023/03/24 05:28:36;;;;;;;13.75;7.72;;;11.50;99.90;;;;;;7580660;19;20011;-73
2023/03/24 05:31:08;;;;;;;12.00;7.53;;;11.50;99.90;;;;;;7586150;19;20066;-74
2023/03/24 05:33:48;;;;;;;13.05;7.80;;;11.40;99.90;;;;;;7556395;19;20025;-73
2023/03/24 05:36:23;;;;;;;13.15;8.35;;;11.30;99.90;;;;;;7577375;19;20057;-74
2023/03/24 05:39:02;;;;;;;14.63;8.00;;;11.20;99.90;;;;;;7584032;19;21000;-73
2023/03/24 05:41:57;;;;;;;15.07;8.65;;;11.20;99.90;;;;;;7601058;19;20022;-73
2023/03/24 05:44:29;;;;;;;14.93;7.85;;;11.20;99.90;;;;;;7602781;19;20011;-74
2023/03/24 05:47:14;;;;;;;12.10;7.97;;;11.20;99.90;;;;;;7596524;19;20011;-73
2023/03/24 05:49:49;;;;;;;15.60;9.05;;;11.20;99.90;;;;;;7567473;19;20575;-75
2023/03/24 05:52:21;;;;;;;13.02;8.15;;;11.20;99.90;;;;;;7547388;19;20031;-74
2023/03/24 05:54:57;;;;;;;11.63;7.18;;;11.20;99.90;;;;;;7551230;19;21003;-75
2023/03/24 05:57:33;;;;;;;13.68;7.78;;;11.30;99.90;;;;;;7532959;19;20014;-74
2023/03/24 06:00:30;;;;;;;15.15;7.47;;;11.40;99.90;;;;;;7516379;19;20636;-74
2023/03/24 06:03:12;;;;;;;13.23;7.70;;;11.60;99.90;;;;;;7546548;19;20019;-74
2023/03/24 06:05:50;;;;;;;12.43;7.40;;;11.60;99.90;;;;;;7552266;19;20022;-77
2023/03/24 06:08:23;;;;;;;14.40;6.95;;;11.60;99.90;;;;;;7576287;19;20011;-77
2023/03/24 06:10:59;;;;;;;;;;;11.60;99.90;;;;;;7572319;19;20968;-75
2023/03/24 06:13:32;;;;;;;11.98;7.45;;;11.70;99.90;;;;;;7558367;19;19933;-78
2023/03/24 06:16:05;;;;;;;14.73;7.43;;;11.70;99.90;;;;;;7559377;19;20021;-77
2023/03/24 06:18:54;;;;;;;13.57;6.72;;;11.70;99.90;;;;;;7556641;19;20012;-77
2023/03/24 06:21:50;;;;;;;10.35;6.55;;;11.60;99.90;;;;;;7564819;19;20022;-77
2023/03/24 06:24:26;;;;;;;17.27;7.07;;;11.60;99.90;;;;;;7557855;19;20015;-79
2023/03/24 06:27:07;;;;;;;14.55;7.38;;;11.60;99.90;;;;;;7571304;19;20026;-77
2023/03/24 06:29:41;;;;;;;14.68;7.55;;;11.60;99.90;;;;;;7567642;19;21070;-78
2023/03/24 06:32:18;;;;;;;16.80;8.00;;;11.70;99.90;;;;;;7565223;19;21271;-78
2023/03/24 06:34:53;;;;;;;15.43;6.88;;;11.70;99.90;;;;;;7568208;19;20025;-78
2023/03/24 06:37:50;;;;;;;10.93;6.97;;;11.80;99.90;;;;;;7582591;19;20018;-78
2023/03/24 06:40:23;;;;;;;9.82;6.90;;;11.80;99.90;;;;;;7570135;19;20010;-78
2023/03/24 06:43:00;;;;;;;9.65;6.88;;;11.90;99.90;;;;;;7566984;19;20014;-73
2023/03/24 06:45:33;;;;;;;11.32;7.22;;;11.80;99.90;;;;;;7568429;19;20102;-77
2023/03/24 06:48:06;;;;;;;11.70;7.20;;;11.80;99.90;;;;;;7563438;19;20019;-74
2023/03/24 06:50:39;;;;;;;14.77;8.63;;;11.90;99.90;;;;;;7566330;19;20021;-75
2023/03/24 06:53:14;;;;;;;10.73;7.15;;;11.90;99.90;;;;;;7573732;19;20104;-75
2023/03/24 06:55:47;;;;;;;20.50;9.93;;;11.90;99.90;;;;;;7590056;19;20479;-75
2023/03/24 06:58:20;;;;;;;;;;;12.00;99.90;;;;;;7564529;19;20844;-76
2023/03/24 07:01:15;;;;;;;14.07;8.05;;;12.00;99.90;;;;;;7567511;19;19918;-75
2023/03/24 07:03:57;;;;;;;12.82;7.95;;;12.00;99.90;;;;;;7581237;19;20054;-74
2023/03/24 07:06:52;;;;;;;16.23;7.50;;;12.00;99.90;;;;;;7574939;19;20610;-75
2023/03/24 07:09:46;;;;;;;;;;;12.20;99.90;;;;;;7579678;19;20014;-75
2023/03/24 07:12:19;;;;;;;16.00;7.85;;;12.20;99.90;;;;;;7585954;19;19930;-74
2023/03/24 07:14:54;;;;;;;13.80;8.15;;;12.10;99.90;;;;;;7565140;19;20657;-74
2023/03/24 07:17:27;;;;;;;12.75;7.60;;;12.20;99.90;;;;;;7569330;19;20014;-71
2023/03/24 07:20:16;;;;;;;15.02;8.18;;;12.30;99.90;;;;;;7573987;19;20025;-72
2023/03/24 07:22:57;;;;;;;14.43;8.20;;;12.30;99.90;;;;;;7572413;19;20082;-71
2023/03/24 07:25:29;;;;;;;13.77;8.50;;;12.20;99.90;;;;;;7593080;19;20015;-71
2023/03/24 07:28:09;;;;;;;11.65;7.32;;;12.10;99.90;;;;;;7576150;19;20025;-72
2023/03/24 07:30:43;;;;;;;16.85;11.07;;;12.10;99.90;;;;;;7584045;19;21705;-70
2023/03/24 07:33:16;;;;;;;20.45;10.02;;;12.10;99.90;;;;;;7573258;19;20019;-71
2023/03/24 07:35:53;;;;;;;20.00;9.35;;;12.10;99.90;;;;;;7579723;19;20011;-70
2023/03/24 07:38:26;;;;;;;16.90;9.30;;;12.10;99.90;;;;;;7590429;19;20015;-72
2023/03/24 07:41:03;;;;;;;17.92;10.48;;;12.20;99.90;;;;;;7590923;19;20026;-70
2023/03/24 07:43:40;;;;;;;17.95;8.98;;;12.00;99.90;;;;;;7594834;19;20546;-72
2023/03/24 07:46:23;;;;;;;14.27;8.15;;;12.10;99.90;;;;;;7567320;19;20089;-72
2023/03/24 07:48:56;;;;;;;20.42;10.95;;;12.10;99.90;;;;;;7566306;19;20014;-72
2023/03/24 07:51:39;;;;;;;;;;;12.10;99.90;;;;;;7573558;19;20558;-72
2023/03/24 07:54:24;;;;;;;;;;;12.00;99.90;;;;;;7570798;19;20609;-72
2023/03/24 07:56:58;;;;;;;16.53;9.70;;;12.00;99.90;;;;;;7595977;19;19915;-70
2023/03/24 07:59:30;;;;;;;14.77;9.60;;;12.00;99.90;;;;;;7568056;19;20053;-70
2023/03/24 08:02:17;;;;;;;14.68;8.88;;;12.00;99.90;;;;;;7574951;19;20656;-71
2023/03/24 08:05:04;;;;;;;17.52;11.25;;;12.10;99.90;;;;;;7583845;19;20708;-71
2023/03/24 08:07:44;;;;;;;18.80;9.98;;;12.10;99.90;;;;;;7578360;19;20028;-68
2023/03/24 08:10:17;;;;;;;15.23;9.85;;;12.10;99.90;;;;;;7587189;19;20983;-72
2023/03/24 08:12:50;;;;;;;19.48;10.13;;;12.10;99.90;;;;;;7588809;19;20035;-71
2023/03/24 08:15:23;;;;;;;18.55;11.38;;;12.10;99.90;;;;;;7576193;19;20026;-71
2023/03/24 08:17:55;;;;;;;17.55;10.85;;;12.10;99.90;;;;;;7582532;19;20606;-71
2023/03/24 08:20:28;;;;;;;18.75;11.40;;;12.20;99.90;;;;;;7569095;19;20021;-70
2023/03/24 08:23:03;;;;;;;22.38;11.70;;;12.30;99.90;;;;;;7595953;19;20828;-70
2023/03/24 08:25:36;;;;;;;21.08;11.23;;;12.30;99.90;;;;;;7593939;19;20077;-71
2023/03/24 08:28:09;;;;;;;17.75;9.27;;;12.40;99.90;;;;;;7592998;19;21822;-72
2023/03/24 08:30:42;;;;;;;17.67;8.75;;;12.50;99.90;;;;;;7593273;19;20118;-72
2023/03/24 08:33:15;;;;;;;24.88;7.90;;;12.70;99.90;;;;;;7587023;19;20015;-71
2023/03/24 08:35:48;;;;;;;12.55;7.55;;;12.80;99.90;;;;;;7566559;19;20014;-71
2023/03/24 08:38:22;;;;;;;12.40;8.05;;;12.90;99.90;;;;;;7579477;19;20025;-72
2023/03/24 08:40:54;;;;;;;12.40;7.95;;;13.00;99.90;;;;;;7595274;19;20472;-72
2023/03/24 08:43:29;;;;;;;11.80;7.57;;;13.10;99.90;;;;;;7580031;19;21887;-72
2023/03/24 08:46:02;;;;;;;13.02;7.28;;;13.10;99.90;;;;;;7589965;19;25368;-72
2023/03/24 08:48:36;;;;;;;11.57;7.25;;;13.20;99.90;;;;;;7593575;19;20101;-73
2023/03/24 08:51:14;;;;;;;11.77;7.43;;;13.20;99.90;;;;;;7589316;19;20018;-71
2023/03/24 08:53:46;;;;;;;14.13;7.05;;;13.30;99.90;;;;;;7598986;19;20019;-71
2023/03/24 08:56:20;;;;;;;14.02;6.88;;;13.40;99.90;;;;;;7590894;19;20051;-71
2023/03/24 08:58:52;;;;;;;10.63;6.85;;;13.40;99.90;;;;;;7605152;19;20037;-72
2023/03/24 09:01:25;;;;;;;9.88;6.93;;;13.40;99.90;;;;;;7580046;19;20262;-70
2023/03/24 09:03:57;;;;;;;9.82;6.35;;;13.50;99.90;;;;;;7607692;19;20022;-71
2023/03/24 09:06:31;;;;;;;8.60;5.85;;;13.50;99.90;;;;;;7600743;19;20022;-72
2023/03/24 09:09:03;;;;;;;8.63;5.75;;;13.60;99.90;;;;;;7602203;19;20026;-71
2023/03/24 09:11:36;;;;;;;8.07;5.65;;;13.60;99.90;;;;;;7563895;19;20010;-70
2023/03/24 09:14:10;;;;;;;9.82;5.38;;;13.60;99.90;;;;;;7576592;19;20018;-71
2023/03/24 09:16:42;;;;;;;9.10;4.90;;;13.60;99.90;;;;;;7592864;19;20022;-70
2023/03/24 09:19:16;;;;;;;5.63;4.63;;;13.70;99.90;;;;;;7602784;19;20031;-71
2023/03/24 09:21:48;;;;;;;5.95;3.85;;;13.80;99.90;;;;;;7607299;19;21201;-70
2023/03/24 09:24:20;;;;;;;5.95;4.05;;;14.00;99.90;;;;;;7599696;19;20018;-72
2023/03/24 09:26:53;;;;;;;5.25;3.60;;;14.00;99.90;;;;;;7601088;19;20038;-72
2023/03/24 09:29:25;;;;;;;8.38;4.32;;;14.10;99.90;;;;;;7598451;19;20043;-72
2023/03/24 09:31:58;;;;;;;6.05;3.25;;;14.10;99.90;;;;;;7604081;19;20023;-71
2023/03/24 09:34:31;;;;;;;5.68;4.13;;;14.20;99.90;;;;;;7585122;19;20106;-72
2023/03/24 09:37:04;;;;;;;5.05;2.95;;;14.20;99.90;;;;;;7604391;19;20015;-71
2023/03/24 09:39:36;;;;;;;5.43;3.45;;;14.30;99.90;;;;;;7591919;19;20048;-71
2023/03/24 09:42:21;;;;;;;5.07;3.42;;;14.30;99.90;;;;;;7595438;19;20014;-70
2023/03/24 09:44:57;;;;;;;7.03;3.67;;;14.20;99.90;;;;;;7605827;19;20411;-71
2023/03/24 09:47:45;;;;;;;4.13;3.10;;;14.20;99.90;;;;;;7596373;19;20377;-72
2023/03/24 09:50:23;;;;;;;4.63;3.53;;;14.20;99.90;;;;;;7596837;19;20050;-72
2023/03/24 09:53:06;;;;;;;7.78;4.30;;;14.10;99.90;;;;;;7605240;19;20467;-72
2023/03/24 09:55:40;;;;;;;6.03;3.22;;;14.10;99.90;;;;;;7599851;19;20026;-70
2023/03/24 09:58:12;;;;;;;5.43;3.58;;;13.90;99.90;;;;;;7580653;19;20025;-71
2023/03/24 10:00:45;;;;;;;3.75;3.30;;;13.90;99.90;;;;;;7591690;19;20529;-72
2023/03/24 10:03:21;;;;;;;7.65;3.58;;;13.80;99.90;;;;;;7591121;19;21150;-72
2023/03/24 10:06:06;;;;;;;5.13;3.70;;;13.60;99.90;;;;;;7588895;19;20022;-72
2023/03/24 10:08:46;;;;;;;6.00;3.30;;;13.60;99.90;;;;;;7593300;19;20018;-72
2023/03/24 10:12:01;;;;;;;10.45;4.00;;;13.50;99.90;;;;;;7591879;19;20015;-72
2023/03/24 10:14:48;;;;;;;7.57;3.95;;;13.40;99.90;;;;;;7601003;19;20022;-72
2023/03/24 10:17:24;;;;;;;5.10;3.95;;;13.20;99.90;;;;;;7597742;19;20034;-72
2023/03/24 10:20:06;;;;;;;6.97;4.07;;;13.30;99.90;;;;;;7571583;19;20019;-71
2023/03/24 10:23:06;;;;;;;6.85;4.43;;;13.20;99.90;;;;;;7587655;19;20015;-71
2023/03/24 10:25:50;;;;;;;7.78;4.18;;;13.20;99.90;;;;;;7590520;19;20035;-72
2023/03/24 10:28:48;;;;;;;8.50;4.47;;;13.10;99.90;;;;;;7600773;19;20421;-72
2023/03/24 10:31:31;;;;;;;7.25;4.47;;;13.20;99.90;;;;;;7587482;19;20015;-72
2023/03/24 10:34:04;;;;;;;7.80;4.53;;;13.20;99.90;;;;;;7593561;19;20045;-71
2023/03/24 10:36:38;;;;;;;;;;;13.20;99.90;;;;;;7577955;19;20018;-71
2023/03/24 10:39:15;;;;;;;9.53;4.70;;;13.20;99.90;;;;;;7594558;19;19935;-70
2023/03/24 10:41:53;;;;;;;7.25;4.55;;;13.20;99.90;;;;;;7599116;19;20074;-71
2023/03/24 10:44:27;;;;;;;11.25;4.60;;;13.20;99.90;;;;;;7564114;19;20082;-71
2023/03/24 10:47:01;;;;;;;;;;;13.20;99.90;;;;;;7593922;19;20022;-72
2023/03/24 10:49:34;;;;;;;6.07;4.60;;;13.20;99.90;;;;;;7588475;19;19923;-70
2023/03/24 10:52:09;;;;;;;9.73;4.57;;;13.20;99.90;;;;;;7587807;19;20014;-70
2023/03/24 10:54:53;;;;;;;6.80;4.40;;;13.20;99.90;;;;;;7594130;19;20090;-72
2023/03/24 10:57:27;;;;;;;5.28;4.03;;;13.20;99.90;;;;;;7603226;19;20015;-73
2023/03/24 11:00:18;;;;;;;5.80;4.20;;;13.30;99.90;;;;;;7597291;19;20011;-73
2023/03/24 11:02:56;;;;;;;8.25;4.03;;;13.30;99.90;;;;;;7603063;19;20024;-73
2023/03/24 11:05:32;;;;;;;6.57;3.85;;;13.30;99.90;;;;;;7592590;19;20812;-72
2023/03/24 11:08:16;;;;;;;5.07;3.38;;;13.20;99.90;;;;;;7573878;19;20017;-72
2023/03/24 11:10:48;;;;;;;;;;;13.30;99.90;;;;;;7589071;19;20025;-72
2023/03/24 11:13:32;;;;;;;8.68;4.35;;;13.20;99.90;;;;;;7587459;19;19925;-71
2023/03/24 11:16:12;;;;;;;;;;;13.10;99.90;;;;;;7592266;19;20598;-73
2023/03/24 11:19:02;;;;;;;7.82;3.40;;;13.10;99.90;;;;;;7589956;19;19910;-71
2023/03/24 11:21:35;;;;;;;4.53;3.20;;;13.10;99.90;;;;;;7582294;19;20021;-71
2023/03/24 11:24:11;;;;;;;4.45;3.05;;;13.20;99.90;;;;;;7599871;19;20052;-72
2023/03/24 11:26:49;;;;;;;7.72;3.20;;;13.20;99.90;;;;;;7597763;19;20466;-73
2023/03/24 11:29:24;;;;;;;4.97;3.47;;;13.20;99.90;;;;;;7601954;19;20022;-73
2023/03/24 11:32:00;;;;;;;4.50;3.45;;;13.20;99.90;;;;;;7602226;19;20018;-73
2023/03/24 11:34:40;;;;;;;4.65;3.50;;;13.10;99.90;;;;;;7587283;19;20014;-72
2023/03/24 11:37:21;;;;;;;6.72;3.60;;;13.10;99.90;;;;;;7602325;19;20026;-73
2023/03/24 11:40:11;;;;;;;11.52;4.15;;;13.00;99.90;;;;;;7592803;19;20033;-73
2023/03/24 11:42:58;;;;;;;8.15;3.95;;;13.00;99.90;;;;;;7577113;19;20019;-70
2023/03/24 11:45:43;;;;;;;7.70;4.45;;;13.00;99.90;;;;;;7590707;19;20392;-71
2023/03/24 11:48:31;;;;;;;9.13;3.72;;;13.00;99.90;;;;;;7599234;19;20028;-72
2023/03/24 11:51:04;;;;;;;6.03;3.88;;;13.00;99.90;;;;;;7603047;19;20091;-72
2023/03/24 11:53:50;;;;;;;6.78;4.45;;;13.10;99.90;;;;;;7597418;19;20037;-72
2023/03/24 11:56:26;;;;;;;5.47;3.80;;;13.20;99.90;;;;;;7588943;19;20945;-72
2023/03/24 11:59:22;;;;;;;5.10;3.78;;;13.40;99.90;;;;;;7605884;19;20021;-70
2023/03/24 12:02:00;;;;;;;5.07;3.55;;;13.50;99.90;;;;;;7599548;19;20015;-71
2023/03/24 12:04:42;;;;;;;5.47;3.92;;;13.50;99.90;;;;;;7581103;19;20468;-71
2023/03/24 12:07:26;;;;;;;6.13;4.35;;;13.70;99.90;;;;;;7598922;19;20772;-70
2023/03/24 12:10:18;;;;;;;5.95;3.85;;;13.80;99.90;;;;;;7581550;19;20022;-71
2023/03/24 12:13:09;;;;;;;14.77;5.10;;;14.00;99.90;;;;;;7569714;19;20018;-68
2023/03/24 12:16:12;;;;;;;6.95;4.30;;;14.20;99.90;;;;;;7546297;19;20025;-72
2023/03/24 12:18:59;;;;;;;7.18;3.88;;;14.40;99.90;;;;;;7564571;19;20017;-71
2023/03/24 12:21:50;;;;;;;4.82;3.33;;;14.60;99.90;;;;;;7587691;19;20047;-71
2023/03/24 12:24:40;;;;;;;5.15;3.75;;;14.80;99.90;;;;;;7597549;19;21808;-72
2023/03/24 12:27:34;;;;;;;6.53;4.15;;;14.90;99.90;;;;;;7590497;19;20025;-71
2023/03/24 12:30:18;;;;;;;7.50;4.00;;;14.90;99.90;;;;;;7599716;19;20077;-74
2023/03/24 12:33:16;;;;;;;8.20;4.80;;;14.90;99.90;;;;;;7595185;19;20015;-74
2023/03/24 12:36:12;;;;;;;5.32;4.28;;;14.80;99.90;;;;;;7579398;19;21074;-74
2023/03/24 12:39:08;;;;;;;9.10;4.78;;;14.80;99.90;;;;;;7572864;19;20547;-75
2023/03/24 12:42:09;;;;;;;6.30;3.92;;;14.60;99.90;;;;;;7597128;19;20022;-74
2023/03/24 12:45:03;;;;;;;10.63;5.38;;;14.70;99.90;;;;;;7559791;19;21553;-75
2023/03/24 12:48:02;;;;;;;;;;;14.70;99.90;;;;;;7562351;19;20015;-71
2023/03/24 12:50:53;;;;;;;7.82;5.45;;;14.50;99.90;;;;;;7599432;19;19922;-70
2023/03/24 12:53:40;;;;;;;7.35;5.10;;;14.60;99.90;;;;;;7581376;19;20018;-70
2023/03/24 12:56:19;;;;;;;8.98;5.10;;;14.50;99.90;;;;;;7591675;19;20054;-71
2023/03/24 12:59:03;;;;;;;9.23;5.18;;;14.60;99.90;;;;;;7599198;19;20043;-72
2023/03/24 13:01:51;;;;;;;8.10;5.63;;;14.60;99.90;;;;;;7561041;19;21161;-72
2023/03/24 13:04:34;;;;;;;10.27;6.00;;;14.60;99.90;;;;;;7596051;19;20026;-75
2023/03/24 13:07:14;;;;;;;8.30;5.30;;;14.70;99.90;;;;;;7594614;19;20022;-75
2023/03/24 13:10:19;;;;;;;9.05;5.50;;;14.70;99.90;;;;;;7592454;19;20011;-74
2023/03/24 13:13:01;;;;;;;8.73;5.47;;;14.70;99.90;;;;;;7595012;19;20133;-74
2023/03/24 13:16:08;;;;;;;9.32;6.18;;;14.80;99.90;;;;;;7597183;19;20561;-75
2023/03/24 13:18:50;;;;;;;7.82;5.50;;;14.70;99.90;;;;;;7598021;19;20057;-74
2023/03/24 13:21:25;;;;;;;8.07;6.03;;;14.70;99.90;;;;;;7584256;19;20014;-73
2023/03/24 13:23:57;;;;;;;8.63;5.82;;;14.80;99.90;;;;;;7599659;19;20065;-75
2023/03/24 13:26:37;;;;;;;8.18;6.28;;;14.70;99.90;;;;;;7594990;19;20018;-74
2023/03/24 13:29:28;;;;;;;7.88;5.95;;;14.70;99.90;;;;;;7589136;19;20019;-75
2023/03/24 13:32:22;;;;;;;10.65;6.47;;;14.60;99.90;;;;;;7581796;19;20017;-75
2023/03/24 13:35:01;;;;;;;9.77;5.88;;;14.50;99.90;;;;;;7580324;19;20022;-74
2023/03/24 13:37:37;;;;;;;10.38;6.25;;;14.40;99.90;;;;;;7585731;19;20022;-74
2023/03/24 13:40:20;;;;;;;6.25;4.68;;;14.40;99.90;;;;;;7582369;19;20034;-74
2023/03/24 13:42:55;;;;;;;6.23;5.10;;;14.30;99.90;;;;;;7587855;19;21312;-74
2023/03/24 13:45:42;;;;;;;8.52;5.53;;;14.10;99.90;;;;;;7587490;19;20014;-76
2023/03/24 13:48:37;;;;;;;4.28;3.03;;;14.00;99.90;;;;;;7572290;19;20803;-75
2023/03/24 13:51:49;;;;;;;4.65;2.80;;;14.00;99.90;;;;;;7589685;19;20026;-77
2023/03/24 13:54:26;;;;;;;6.95;2.85;;;13.80;99.90;;;;;;7572543;19;20434;-75
2023/03/24 13:57:11;;;;;;;4.18;2.63;;;13.60;99.90;;;;;;7576765;19;20575;-75